Time;durP1;ratioP1;P1;durP2;ratioP2;P2;SDS_P1;SDS_P2;PMS_P1;PMS_P2;Temp;Humidity;BMP_temperature;BMP_pressure;BME280_temperature;BME280_humidity;BME280_pressure;Samples;Min_cycle;Max_cycle;Signal;HPM_P1;HPM_P2
2023/10/09 00:03:01;;;;;;;;;;;;;;;19.83;57.27;101916.31;5042956;28;19913;-49
2023/10/09 00:05:39;;;;;;;;;;;;;;;19.82;57.41;101918.19;5040057;28;19920;-50
2023/10/09 00:08:04;;;;;;;;;;;;;;;19.82;56.98;101917.34;5038692;28;19912;-47
2023/10/09 00:10:44;;;;;;;;;;;;;;;19.81;57.44;101915.63;5041720;28;19927;-52
2023/10/09 00:13:10;;;;;;;;;;;;;;;19.81;57.11;101919.19;5040842;28;20381;-49
2023/10/09 00:15:36;;;;;;;;;;;;;;;19.80;57.22;101920.19;5039078;28;19917;-49
2023/10/09 00:18:04;;;;;;;;;;;;;;;19.80;57.37;101925.59;5041426;28;19928;-47
2023/10/09 00:20:39;;;;;;;;;;;;;;;19.79;57.14;101923.88;5042212;28;19923;-49
2023/10/09 00:23:12;;;;;;;;;;;;;;;19.79;57.43;101929.25;5041291;28;19912;-49
2023/10/09 00:25:44;;;;;;;;;;;;;;;19.79;57.03;101923.88;5042953;28;19967;-51
2023/10/09 00:28:10;;;;;;;;;;;;;;;19.78;57.33;101918.63;5039639;28;19919;-49
2023/10/09 00:30:36;;;;;;;;;;;;;;;19.79;57.39;101920.31;5037125;28;19913;-50
2023/10/09 00:33:07;;;;;;;;;;;;;;;19.78;57.33;101914.06;5067497;28;19916;-52
2023/10/09 00:38:23;;;;;;;;;;;;;;;19.76;57.28;101905.28;5043223;28;19981;-51
2023/10/09 00:43:35;;;;;;;;;;;;;;;19.75;57.28;101903.56;5042101;28;19921;-51
2023/10/09 00:46:12;;;;;;;;;;;;;;;19.76;57.13;101897.19;5037371;28;19920;-48
2023/10/09 00:48:40;;;;;;;;;;;;;;;19.74;57.36;101885.69;5039994;28;19913;-49
2023/10/09 00:51:16;;;;;;;;;;;;;;;19.74;57.18;101893.78;5039555;28;19927;-53
2023/10/09 00:53:42;;;;;;;;;;;;;;;19.73;57.38;101901.03;5039804;28;20360;-48
2023/10/09 00:58:56;;;;;;;;;;;;;;;19.73;57.43;101881.31;5074291;28;20072;-50
2023/10/09 01:01:27;;;;;;;;;;;;;;;19.72;57.49;101880.47;5041893;28;19944;-49
2023/10/09 01:03:52;;;;;;;;;;;;;;;19.71;57.07;101877.91;5041013;28;19924;-49
2023/10/09 01:06:21;;;;;;;;;;;;;;;19.72;57.13;101874.22;5041030;28;19917;-47
2023/10/09 01:08:56;;;;;;;;;;;;;;;19.72;57.32;101868.81;5040959;28;19913;-50
2023/10/09 01:11:23;;;;;;;;;;;;;;;19.71;57.49;101867.97;5058158;28;19917;-50
2023/10/09 01:16:18;;;;;;;;;;;;;;;19.71;57.31;101857.19;5041774;28;19972;-50
2023/10/09 01:18:43;;;;;;;;;;;;;;;19.70;57.30;101850.06;5041980;28;20383;-50
2023/10/09 01:21:12;;;;;;;;;;;;;;;19.70;57.16;101851.91;5040540;28;20014;-47
2023/10/09 01:23:44;;;;;;;;;;;;;;;19.68;57.45;101854.78;5038327;28;19959;-49
2023/10/09 01:26:09;;;;;;;;;;;;;;;19.70;57.19;101850.06;5042138;28;19913;-48
2023/10/09 01:28:34;;;;;;;;;;;;;;;19.70;57.52;101860.00;5040541;28;19948;-48
2023/10/09 01:31:03;;;;;;;;;;;;;;;19.69;57.57;101863.72;5041080;28;20357;-48
2023/10/09 01:33:28;;;;;;;;;;;;;;;19.68;57.54;101862.88;5038354;28;19913;-48
2023/10/09 01:35:58;;;;;;;;;;;;;;;19.68;57.33;101860.16;5039153;28;19917;-49
2023/10/09 01:38:32;;;;;;;;;;;;;;;19.67;57.39;101858.47;5040482;28;19913;-48
2023/10/09 01:41:06;;;;;;;;;;;;;;;19.66;57.65;101843.28;5043914;28;19916;-49
2023/10/09 01:43:34;;;;;;;;;;;;;;;19.67;57.38;101850.38;5036968;28;20367;-50
2023/10/09 01:46:01;;;;;;;;;;;;;;;19.67;57.29;101839.59;5039501;28;19951;-48
2023/10/09 01:48:26;;;;;;;;;;;;;;;19.67;57.27;101831.50;5038708;28;19944;-47
2023/10/09 01:50:51;;;;;;;;;;;;;;;19.66;57.22;101835.19;5053983;28;19917;-50
2023/10/09 01:53:21;;;;;;;;;;;;;;;19.66;57.55;101827.09;5038189;28;19913;-46
2023/10/09 01:55:47;;;;;;;;;;;;;;;19.65;57.53;101822.69;5038252;28;19951;-48
2023/10/09 02:00:50;;;;;;;;;;;;;;;19.65;57.53;101822.69;5042609;28;20430;-48
2023/10/09 02:03:15;;;;;;;;;;;;;;;19.65;57.67;101825.41;5040031;28;20008;-51
2023/10/09 02:05:44;;;;;;;;;;;;;;;19.65;57.56;101819.16;5039712;28;19986;-47
2023/10/09 02:08:10;;;;;;;;;;;;;;;19.65;57.52;101809.22;5038462;28;20281;-49
2023/10/09 02:10:37;;;;;;;;;;;;;;;19.64;57.64;101810.22;5039716;28;19924;-49
2023/10/09 02:13:06;;;;;;;;;;;;;;;19.64;57.32;101801.28;5038294;28;20291;-51
2023/10/09 02:23:30;;;;;;;;;;;;;;;19.63;57.55;101783.41;5039563;28;19912;-49
2023/10/09 02:26:01;;;;;;;;;;;;;;;19.62;57.42;101774.44;5047693;28;20211;-48
2023/10/09 02:28:32;;;;;;;;;;;;;;;19.63;57.56;101778.00;5036574;28;20574;-50
2023/10/09 02:31:00;;;;;;;;;;;;;;;19.63;57.69;101778.00;5037876;28;20398;-53
2023/10/09 02:33:28;;;;;;;;;;;;;;;19.62;57.62;101777.13;5038376;28;19966;-49
2023/10/09 02:35:55;;;;;;;;;;;;;;;19.62;57.63;101777.13;5036423;28;19925;-49
2023/10/09 02:38:23;;;;;;;;;;;;;;;19.61;57.49;101780.84;5036987;28;19917;-49
2023/10/09 02:43:50;;;;;;;;;;;;;;;19.61;57.37;101775.44;5037002;28;19928;-51
2023/10/09 02:46:20;;;;;;;;;;;;;;;19.61;57.67;101775.44;5035184;28;20452;-49
2023/10/09 02:48:50;;;;;;;;;;;;;;;19.61;57.57;101778.13;5035584;28;19963;-49
2023/10/09 02:51:31;;;;;;;;;;;;;;;19.61;57.45;101771.91;5043034;28;19928;-47
2023/10/09 02:53:57;;;;;;;;;;;;;;;19.62;57.58;101760.09;5035483;28;19920;-47
2023/10/09 02:56:43;;;;;;;;;;;;;;;19.61;57.50;101772.75;5037653;28;19924;-48
2023/10/09 02:59:08;;;;;;;;;;;;;;;19.60;57.72;101764.78;5043986;28;19914;-51
2023/10/09 03:01:38;;;;;;;;;;;;;;;19.60;57.87;101768.31;5042240;28;19949;-49
2023/10/09 03:04:05;;;;;;;;;;;;;;;19.60;57.82;101776.41;5040968;28;19936;-50
2023/10/09 03:06:32;;;;;;;;;;;;;;;19.60;57.34;101767.47;5041534;28;19924;-51
2023/10/09 03:08:57;;;;;;;;;;;;;;;19.59;57.51;101769.31;5073021;28;19956;-49
2023/10/09 03:11:23;;;;;;;;;;;;;;;19.59;57.41;101769.31;5041923;28;20305;-48
2023/10/09 03:13:48;;;;;;;;;;;;;;;19.59;57.44;101763.94;5042513;28;20623;-51
2023/10/09 03:16:19;;;;;;;;;;;;;;;19.60;57.72;101757.53;5040271;28;19917;-49
2023/10/09 03:18:54;;;;;;;;;;;;;;;19.59;57.45;101761.22;5039557;28;19999;-49
2023/10/09 03:21:19;;;;;;;;;;;;;;;19.60;57.70;101751.28;5043135;28;19912;-47
2023/10/09 03:23:49;;;;;;;;;;;;;;;19.59;57.63;101763.09;5044230;28;20390;-51
2023/10/09 03:26:15;;;;;;;;;;;;;;;19.59;57.72;101755.00;5042111;28;19953;-48
2023/10/09 03:28:43;;;;;;;;;;;;;;;19.58;57.39;101762.25;5044179;28;19913;-49
2023/10/09 03:31:10;;;;;;;;;;;;;;;19.58;57.74;101756.84;5041510;28;20008;-49
2023/10/09 03:33:35;;;;;;;;;;;;;;;19.58;57.48;101751.47;5041321;28;19924;-52
2023/10/09 03:36:01;;;;;;;;;;;;;;;19.59;57.83;101755.00;5042984;28;19921;-47
2023/10/09 03:38:29;;;;;;;;;;;;;;;19.58;57.78;101747.88;5044560;28;20462;-47
2023/10/09 03:40:54;;;;;;;;;;;;;;;19.58;57.81;101742.47;5039958;28;19924;-51
2023/10/09 03:43:21;;;;;;;;;;;;;;;19.58;57.87;101753.28;5041319;28;19960;-49
2023/10/09 03:45:52;;;;;;;;;;;;;;;19.57;57.42;101741.63;5039549;28;19917;-49
2023/10/09 03:48:22;;;;;;;;;;;;;;;19.58;57.74;101732.56;5042461;28;20287;-49
2023/10/09 03:50:47;;;;;;;;;;;;;;;19.57;57.50;101738.09;5042726;28;19917;-51
2023/10/09 03:53:13;;;;;;;;;;;;;;;19.57;57.68;101740.78;5071445;28;19992;-49
2023/10/09 03:55:39;;;;;;;;;;;;;;;19.58;57.83;101742.47;5040205;28;19923;-50
2023/10/09 03:58:04;;;;;;;;;;;;;;;19.57;57.89;101760.53;5039015;28;20403;-49
2023/10/09 04:00:31;;;;;;;;;;;;;;;19.57;57.73;101763.22;5041569;28;19913;-49
2023/10/09 04:02:57;;;;;;;;;;;;;;;19.57;57.59;101773.16;5042811;28;19924;-48
2023/10/09 04:05:22;;;;;;;;;;;;;;;19.57;57.62;101775.88;5041661;28;20016;-51
2023/10/09 04:07:49;;;;;;;;;;;;;;;19.57;57.78;101773.16;5042156;28;20459;-49
2023/10/09 04:10:32;;;;;;;;;;;;;;;19.57;57.72;101770.47;5043866;28;19913;-48
2023/10/09 04:12:58;;;;;;;;;;;;;;;19.57;57.87;101768.63;5041725;28;19913;-50
2023/10/09 04:15:24;;;;;;;;;;;;;;;19.55;57.73;101767.94;5038954;28;19972;-49
2023/10/09 04:17:51;;;;;;;;;;;;;;;19.56;57.93;101776.88;5037988;28;19976;-48
2023/10/09 04:22:50;;;;;;;;;;;;;;;19.56;57.98;101769.63;5039023;28;19917;-47
2023/10/09 04:25:20;;;;;;;;;;;;;;;19.57;58.02;101767.78;5039327;28;19968;-48
2023/10/09 04:27:46;;;;;;;;;;;;;;;19.56;57.87;101775.03;5043308;28;19923;-48
2023/10/09 04:30:15;;;;;;;;;;;;;;;19.56;58.02;101777.72;5039282;28;19924;-47
2023/10/09 04:32:44;;;;;;;;;;;;;;;19.57;57.91;101773.16;5040429;28;19913;-49
2023/10/09 04:35:29;;;;;;;;;;;;;;;19.56;58.04;101769.63;5043105;28;19917;-49
2023/10/09 04:38:07;;;;;;;;;;;;;;;19.57;58.32;101765.91;5040341;28;19913;-50
2023/10/09 04:40:48;;;;;;;;;;;;;;;19.57;58.65;101756.97;5041959;28;19912;-52
2023/10/09 04:43:20;;;;;;;;;;;;;;;19.58;58.65;101758.66;5040453;28;20287;-48
2023/10/09 04:46:06;;;;;;;;;;;;;;;19.57;58.79;101760.53;5064885;28;19913;-47
2023/10/09 04:48:38;;;;;;;;;;;;;;;19.49;58.87;101752.34;5039412;28;19921;-51
2023/10/09 04:51:22;;;;;;;;;;;;;;;19.59;58.76;101763.09;5045833;28;19913;-50
2023/10/09 04:53:54;;;;;;;;;;;;;;;19.58;59.02;101764.94;5035546;28;20463;-47
2023/10/09 04:56:24;;;;;;;;;;;;;;;19.59;59.05;101776.56;5039129;28;19940;-51
2023/10/09 04:58:49;;;;;;;;;;;;;;;19.59;58.79;101785.50;5040665;28;19913;-50
2023/10/09 05:01:16;;;;;;;;;;;;;;;19.60;58.85;101767.47;5039366;28;19920;-49
2023/10/09 05:08:54;;;;;;;;;;;;;;;19.61;59.17;101755.72;5036137;28;19936;-48
2023/10/09 05:12:09;;;;;;;;;;;;;;;19.61;59.07;101769.19;5041436;28;19960;-48
2023/10/09 05:14:13;;;;;;;;;;;;;;;19.60;59.05;101776.41;5034067;28;19917;-51
2023/10/09 05:16:53;;;;;;;;;;;;;;;19.60;59.10;101776.41;5037310;28;20080;-51
2023/10/09 05:22:09;;;;;;;;;;;;;;;19.61;59.44;101777.28;5040744;28;19985;-50
2023/10/09 05:24:45;;;;;;;;;;;;;;;19.60;59.17;101781.81;5039756;28;19979;-47
2023/10/09 05:27:24;;;;;;;;;;;;;;;19.61;59.28;101801.56;5040163;28;20264;-48
2023/10/09 05:29:59;;;;;;;;;;;;;;;19.61;59.28;101799.72;5037777;28;19920;-50
2023/10/09 05:32:35;;;;;;;;;;;;;;;19.60;59.74;101800.69;5042392;28;19909;-50
2023/10/09 05:37:25;;;;;;;;;;;;;;;19.60;59.74;101803.38;5038241;28;19909;-48
2023/10/09 05:47:54;;;;;;;;;;;;;;;19.64;59.64;101814.75;5036289;28;19913;-52
2023/10/09 06:08:27;;;;;;;;;;;;;;;19.66;59.47;101812.75;5043130;28;19940;-49
2023/10/09 06:13:45;;;;;;;;;;;;;;;19.65;59.60;101822.69;5039698;28;20137;-49
2023/10/09 06:16:29;;;;;;;;;;;;;;;19.66;59.62;101818.16;5034838;28;19920;-50
2023/10/09 06:19:07;;;;;;;;;;;;;;;19.66;59.50;101792.00;5039040;28;19919;-50
2023/10/09 06:24:17;;;;;;;;;;;;;;;19.67;59.33;101793.72;5044483;28;20374;-51
2023/10/09 06:29:35;;;;;;;;;;;;;;;19.67;59.44;101795.59;5040684;28;19913;-47
2023/10/09 06:32:50;;;;;;;;;;;;;;;19.67;59.56;101803.69;5039932;28;19913;-51
2023/10/09 06:34:53;;;;;;;;;;;;;;;19.67;59.44;101823.41;5032423;28;19989;-48
2023/10/09 06:44:55;;;;;;;;;;;;;;;19.68;59.57;101818.84;5036362;28;20012;-48
2023/10/09 06:47:23;;;;;;;;;;;;;;;19.68;59.41;101816.16;5036423;28;19920;-48
2023/10/09 06:50:24;;;;;;;;;;;;;;;19.68;59.63;101799.97;5035352;28;19975;-48
2023/10/09 06:52:57;;;;;;;;;;;;;;;19.68;59.28;101790.03;5036692;28;19959;-48
2023/10/09 06:55:19;;;;;;;;;;;;;;;19.68;59.46;101781.09;5038414;28;19924;-47
2023/10/09 06:57:48;;;;;;;;;;;;;;;19.68;59.68;101794.56;5035935;28;19916;-48
2023/10/09 07:03:05;;;;;;;;;;;;;;;19.68;59.61;101781.09;5035164;28;20043;-50
2023/10/09 07:05:48;;;;;;;;;;;;;;;19.68;59.59;101784.63;5039123;28;19913;-51
2023/10/09 07:08:31;;;;;;;;;;;;;;;19.68;59.25;101794.56;5035563;28;19916;-48
2023/10/09 07:11:21;;;;;;;;;;;;;;;19.68;59.32;101799.97;5037147;28;19960;-50
2023/10/09 07:13:47;;;;;;;;;;;;;;;19.68;59.55;101805.38;5034059;28;19952;-49
2023/10/09 07:16:28;;;;;;;;;;;;;;;19.67;59.23;101806.38;5033964;28;19948;-51
2023/10/09 07:18:54;;;;;;;;;;;;;;;19.68;59.43;101817.00;5036537;28;20027;-49
2023/10/09 07:21:27;;;;;;;;;;;;;;;19.68;59.41;101819.69;5036407;28;19981;-48
2023/10/09 07:23:57;;;;;;;;;;;;;;;19.69;59.22;101815.16;5038920;28;19912;-50
2023/10/09 07:26:36;;;;;;;;;;;;;;;19.69;59.42;101809.75;5035537;28;19920;-49
2023/10/09 07:29:15;;;;;;;;;;;;;;;19.68;59.06;101805.38;5035641;28;19927;-52
2023/10/09 07:31:45;;;;;;;;;;;;;;;19.68;59.44;101816.16;5040933;28;20387;-49
2023/10/09 07:34:32;;;;;;;;;;;;;;;19.68;59.45;101822.41;5034499;28;19947;-48
2023/10/09 07:36:56;;;;;;;;;;;;;;;19.69;59.40;101820.53;5040281;28;19932;-48
2023/10/09 07:39:22;;;;;;;;;;;;;;;19.69;59.22;101817.84;5036159;28;20000;-48
2023/10/09 07:42:01;;;;;;;;;;;;;;;19.69;59.50;101825.94;5040365;28;19913;-48
2023/10/09 07:44:39;;;;;;;;;;;;;;;19.68;59.21;101830.50;5045355;28;19920;-50
2023/10/09 07:50:11;;;;;;;;;;;;;;;19.70;59.24;101838.44;5043563;28;20213;-50
2023/10/09 07:52:43;;;;;;;;;;;;;;;19.70;59.46;101841.13;5043923;28;19913;-48
2023/10/09 07:55:25;;;;;;;;;;;;;;;19.69;59.34;101839.44;5041500;28;19983;-48
2023/10/09 07:57:52;;;;;;;;;;;;;;;19.69;59.16;101836.75;5040527;28;19940;-48
2023/10/09 08:03:02;;;;;;;;;;;;;;;19.70;59.18;101795.25;5053829;28;19955;-48
2023/10/09 08:05:33;;;;;;;;;;;;;;;19.70;59.43;101784.47;5042284;28;19948;-50
2023/10/09 08:08:18;;;;;;;;;;;;;;;19.70;59.10;101779.06;5046247;28;19916;-47
2023/10/09 08:16:20;;;;;;;;;;;;;;;19.70;59.37;101804.19;5041829;28;19947;-50
2023/10/09 08:18:45;;;;;;;;;;;;;;;19.70;59.23;101792.56;5042539;28;19921;-51
2023/10/09 08:23:50;;;;;;;;;;;;;;;19.71;59.61;101786.19;5040656;28;19920;-49
2023/10/09 08:26:28;;;;;;;;;;;;;;;19.72;59.75;101779.78;5035944;28;19924;-49
2023/10/09 08:29:15;;;;;;;;;;;;;;;19.71;59.99;101778.94;5041555;28;19916;-49
2023/10/09 08:31:45;;;;;;;;;;;;;;;19.73;60.10;101779.63;5040482;28;19959;-47
2023/10/09 08:34:24;;;;;;;;;;;;;;;19.74;60.29;101772.38;5037866;28;19914;-50
2023/10/09 08:36:52;;;;;;;;;;;;;;;19.76;60.12;101783.03;5042180;28;19962;-49
2023/10/09 08:39:25;;;;;;;;;;;;;;;19.76;60.43;101788.44;5040240;28;19921;-51
2023/10/09 08:41:52;;;;;;;;;;;;;;;19.77;60.28;101809.00;5039848;28;19913;-48
2023/10/09 08:44:17;;;;;;;;;;;;;;;19.78;60.45;101825.03;5038256;28;19920;-49
2023/10/09 08:46:42;;;;;;;;;;;;;;;19.79;60.48;101823.19;5036992;28;19913;-48
2023/10/09 08:49:09;;;;;;;;;;;;;;;19.80;60.37;101843.78;5040968;28;19980;-48
2023/10/09 08:51:35;;;;;;;;;;;;;;;19.79;60.08;101855.56;5038593;28;19917;-51
2023/10/09 08:54:00;;;;;;;;;;;;;;;19.80;60.24;101858.13;5038900;28;19920;-48
2023/10/09 08:56:25;;;;;;;;;;;;;;;19.81;60.53;101854.41;5042621;28;19928;-48
2023/10/09 08:58:51;;;;;;;;;;;;;;;19.81;60.58;101877.84;5039141;28;20419;-52
2023/10/09 09:01:17;;;;;;;;;;;;;;;19.81;60.45;101892.19;5036471;28;19967;-50
2023/10/09 09:03:45;;;;;;;;;;;;;;;19.81;60.70;101884.09;5037957;28;19921;-51
2023/10/09 09:06:11;;;;;;;;;;;;;;;19.81;60.45;101883.25;5035892;28;19943;-47
2023/10/09 09:08:37;;;;;;;;;;;;;;;19.81;60.45;101886.81;5042679;28;19919;-47
2023/10/09 09:11:11;;;;;;;;;;;;;;;19.81;60.46;101878.72;5038167;28;19972;-50
2023/10/09 09:13:37;;;;;;;;;;;;;;;19.82;60.32;101884.94;5037108;28;19921;-49
2023/10/09 09:16:03;;;;;;;;;;;;;;;19.83;60.52;101892.88;5033682;28;19964;-47
2023/10/09 09:18:38;;;;;;;;;;;;;;;19.82;60.59;101893.88;5038684;28;19921;-48
2023/10/09 09:21:18;;;;;;;;;;;;;;;19.83;60.77;101903.69;5040026;28;19920;-50
2023/10/09 09:23:54;;;;;;;;;;;;;;;19.84;60.92;101920.75;5038105;28;19920;-47
2023/10/09 09:26:34;;;;;;;;;;;;;;;19.83;60.46;101909.06;5037668;28;19914;-47
2023/10/09 09:28:59;;;;;;;;;;;;;;;19.84;60.21;101909.94;5041166;28;19920;-46
2023/10/09 09:31:25;;;;;;;;;;;;;;;19.84;60.20;101913.50;5038431;28;20015;-48
2023/10/09 09:33:58;;;;;;;;;;;;;;;19.85;60.57;101895.44;5037614;28;20375;-48
2023/10/09 09:36:26;;;;;;;;;;;;;;;19.84;60.05;101883.81;5031953;28;19923;-50
2023/10/09 09:38:52;;;;;;;;;;;;;;;19.85;60.01;101876.56;5040687;28;19917;-50
2023/10/09 09:41:26;;;;;;;;;;;;;;;19.85;60.05;101884.66;5034692;28;19984;-49
2023/10/09 09:43:51;;;;;;;;;;;;;;;19.84;59.95;101897.31;5036767;28;19921;-47
2023/10/09 09:46:17;;;;;;;;;;;;;;;19.85;60.09;101908.94;5037284;28;19998;-51
2023/10/09 09:48:45;;;;;;;;;;;;;;;19.85;60.42;101890.06;5040361;28;20387;-48
2023/10/09 09:51:13;;;;;;;;;;;;;;;19.86;60.28;101894.44;5038376;28;19913;-50
2023/10/09 09:53:38;;;;;;;;;;;;;;;19.85;60.14;101892.75;5041312;28;19943;-50
2023/10/09 09:56:04;;;;;;;;;;;;;;;19.85;60.22;101887.34;5038969;28;19921;-46
2023/10/09 09:58:41;;;;;;;;;;;;;;;19.85;60.09;101895.44;5039034;28;20040;-48
2023/10/09 10:01:14;;;;;;;;;;;;;;;19.85;60.15;101890.91;5040126;28;19917;-47
2023/10/09 10:03:43;;;;;;;;;;;;;;;19.86;59.92;101902.53;5039856;28;19920;-46
2023/10/09 10:06:12;;;;;;;;;;;;;;;19.86;59.84;101906.09;5039594;28;19920;-47
2023/10/09 10:08:39;;;;;;;;;;;;;;;19.86;59.89;101902.53;5038201;28;19917;-47
2023/10/09 10:11:13;;;;;;;;;;;;;;;19.86;60.07;101913.34;5036874;28;20367;-47
2023/10/09 10:13:41;;;;;;;;;;;;;;;19.86;60.22;101906.09;5047019;28;19920;-48
2023/10/09 10:16:20;;;;;;;;;;;;;;;19.86;60.04;101910.63;5041004;28;19924;-49
2023/10/09 10:18:52;;;;;;;;;;;;;;;19.86;60.10;101897.97;5039305;28;19913;-48
2023/10/09 10:21:17;;;;;;;;;;;;;;;19.86;59.87;101897.97;5039866;28;20001;-48
2023/10/09 10:23:48;;;;;;;;;;;;;;;19.86;60.02;101900.69;5067455;28;19913;-50
2023/10/09 10:26:26;;;;;;;;;;;;;;;19.87;60.06;101899.69;5040163;28;19919;-52
2023/10/09 10:29:16;;;;;;;;;;;;;;;19.88;60.35;101903.22;5038551;28;19920;-50
2023/10/09 10:31:56;;;;;;;;;;;;;;;19.88;59.82;101903.22;5037075;28;19917;-48
2023/10/09 10:34:24;;;;;;;;;;;;;;;19.88;60.21;101914.00;5038784;28;20288;-49
2023/10/09 10:36:58;;;;;;;;;;;;;;;19.87;60.06;101907.78;5037575;28;19923;-51
2023/10/09 10:39:39;;;;;;;;;;;;;;;19.87;60.22;101915.88;5040317;28;19912;-47
2023/10/09 10:42:09;;;;;;;;;;;;;;;19.87;60.13;101915.88;5039505;28;19924;-49
2023/10/09 10:44:36;;;;;;;;;;;;;;;19.88;60.28;101925.69;5039220;28;19913;-48
2023/10/09 10:47:02;;;;;;;;;;;;;;;19.88;60.16;101917.59;5038388;28;20095;-49
2023/10/09 10:49:36;;;;;;;;;;;;;;;19.88;60.53;101912.19;5040062;28;19913;-50
2023/10/09 10:52:14;;;;;;;;;;;;;;;19.88;60.41;101917.59;5043065;28;20003;-46
2023/10/09 10:57:19;;;;;;;;;;;;;;;19.89;60.27;101902.25;5039298;28;20007;-48
2023/10/09 10:59:44;;;;;;;;;;;;;;;19.89;60.47;101918.44;5039316;28;19920;-49
2023/10/09 11:04:39;;;;;;;;;;;;;;;19.90;60.76;101903.94;5065279;28;19976;-51
2023/10/09 11:16:32;;;;;;;;;;;;;;;19.90;60.82;101904.78;4987365;28;19921;-48
2023/10/09 11:18:20;;;;;;;;;;;;;;;19.90;60.57;101918.28;4983933;28;19964;-48
2023/10/09 11:23:39;;;;;;;;;;;;;;;19.90;60.52;101909.34;4983013;28;19917;-46
2023/10/09 11:26:53;;;;;;;;;;;;;;;19.90;60.60;101909.34;4995868;28;20014;-50
2023/10/09 11:32:04;;;;;;;;;;;;;;;19.90;60.45;101920.97;4993379;28;20406;-47
2023/10/09 11:34:29;;;;;;;;;;;;;;;19.91;60.52;101919.13;4991038;28;19914;-50
2023/10/09 11:36:58;;;;;;;;;;;;;;;19.92;60.77;101920.81;4986621;28;19918;-52
2023/10/09 11:39:31;;;;;;;;;;;;;;;19.92;60.61;101920.81;4995683;28;19985;-48
2023/10/09 11:42:05;;;;;;;;;;;;;;;19.91;60.69;101911.03;4992445;28;19922;-48
2023/10/09 11:44:39;;;;;;;;;;;;;;;19.92;60.57;101918.13;4981051;28;19914;-51
2023/10/09 11:50:13;;;;;;;;;;;;;;;19.91;60.76;101909.16;5017492;28;20386;-50
2023/10/09 11:52:56;;;;;;;;;;;;;;;19.91;60.90;101919.97;5043203;28;19917;-48
2023/10/09 11:55:25;;;;;;;;;;;;;;;19.91;60.58;101914.56;5044123;28;19920;-49
2023/10/09 11:57:50;;;;;;;;;;;;;;;19.91;60.77;101917.28;5043933;28;19976;-48
2023/10/09 12:00:28;;;;;;;;;;;;;;;19.91;60.88;101917.28;5041813;28;19939;-48
2023/10/09 12:02:54;;;;;;;;;;;;;;;19.92;60.65;101923.50;5040566;28;20353;-51
2023/10/09 12:05:19;;;;;;;;;;;;;;;19.91;60.58;101928.06;5043357;28;19913;-49
2023/10/09 12:07:45;;;;;;;;;;;;;;;19.92;60.69;101934.31;5040887;28;20390;-50
2023/10/09 12:10:11;;;;;;;;;;;;;;;19.91;60.71;101938.88;5042181;28;19960;-50
2023/10/09 12:12:36;;;;;;;;;;;;;;;19.92;60.32;101934.31;5043384;28;20454;-48
2023/10/09 12:15:05;;;;;;;;;;;;;;;19.91;60.57;101925.38;5036694;28;19921;-46
2023/10/09 12:17:30;;;;;;;;;;;;;;;19.92;60.30;101915.41;5039029;28;19944;-48
2023/10/09 12:19:56;;;;;;;;;;;;;;;19.92;60.69;101913.59;5041246;28;19927;-51
2023/10/09 12:22:21;;;;;;;;;;;;;;;19.91;60.44;101913.72;5039240;28;20537;-47
2023/10/09 12:24:46;;;;;;;;;;;;;;;19.92;60.23;101915.41;5042268;28;19919;-49
2023/10/09 12:27:12;;;;;;;;;;;;;;;19.92;60.52;101919.00;5038378;28;19966;-50
2023/10/09 12:29:37;;;;;;;;;;;;;;;19.91;60.25;101919.13;5041476;28;19913;-51
2023/10/09 12:32:03;;;;;;;;;;;;;;;19.91;60.62;101922.66;5040839;28;19917;-48
2023/10/09 12:34:30;;;;;;;;;;;;;;;19.92;60.58;101920.81;5038115;28;19913;-50
2023/10/09 12:36:56;;;;;;;;;;;;;;;19.92;60.63;101910.91;5040439;28;20012;-51
2023/10/09 12:39:21;;;;;;;;;;;;;;;19.92;60.57;101920.81;5040108;28;19924;-48
2023/10/09 12:41:53;;;;;;;;;;;;;;;19.92;60.50;101928.91;5042205;28;19917;-48
2023/10/09 12:44:18;;;;;;;;;;;;;;;19.91;60.49;101917.28;5039016;28;19924;-49
2023/10/09 12:46:51;;;;;;;;;;;;;;;19.92;60.61;101913.59;5040351;28;19912;-52
2023/10/09 12:49:26;;;;;;;;;;;;;;;19.91;60.56;101911.88;5036994;28;19913;-52
2023/10/09 12:51:52;;;;;;;;;;;;;;;19.91;60.44;101911.03;5040348;28;19918;-48
2023/10/09 12:54:20;;;;;;;;;;;;;;;19.91;60.37;101921.81;5038745;28;19967;-49
2023/10/09 12:56:48;;;;;;;;;;;;;;;19.92;60.74;101919.00;5038243;28;20303;-50
2023/10/09 12:59:14;;;;;;;;;;;;;;;19.91;60.55;101911.88;5039708;28;19917;-51
2023/10/09 13:01:42;;;;;;;;;;;;;;;19.92;60.38;101907.31;5039093;28;19917;-47
2023/10/09 13:04:11;;;;;;;;;;;;;;;19.92;60.49;101907.31;5041660;28;19931;-48
2023/10/09 13:06:43;;;;;;;;;;;;;;;19.92;60.83;101908.19;5039241;28;20601;-52
2023/10/09 13:09:08;;;;;;;;;;;;;;;19.93;61.02;101909.03;5047132;28;19920;-48
2023/10/09 13:11:36;;;;;;;;;;;;;;;19.93;60.96;101906.34;5038251;28;19917;-48
2023/10/09 13:14:11;;;;;;;;;;;;;;;19.93;61.01;101898.25;5038665;28;19913;-49
2023/10/09 13:16:36;;;;;;;;;;;;;;;19.93;60.97;101904.50;5036513;28;19921;-48
2023/10/09 13:19:09;;;;;;;;;;;;;;;19.94;61.10;101899.94;5037496;28;19967;-52
2023/10/09 13:21:37;;;;;;;;;;;;;;;19.94;61.28;101898.09;5035209;28;19913;-52
2023/10/09 13:24:02;;;;;;;;;;;;;;;19.94;61.21;101898.09;5041375;28;20399;-47
2023/10/09 13:26:31;;;;;;;;;;;;;;;19.95;61.53;101907.03;5036920;28;19961;-48
2023/10/09 13:28:57;;;;;;;;;;;;;;;19.96;61.50;101906.91;5038824;28;19919;-48
2023/10/09 13:31:26;;;;;;;;;;;;;;;19.97;61.53;101905.03;5041043;28;19960;-50
2023/10/09 13:33:55;;;;;;;;;;;;;;;19.96;61.13;101911.41;5040970;28;19909;-48
2023/10/09 13:36:33;;;;;;;;;;;;;;;19.97;61.18;101916.69;5038340;28;19927;-51
2023/10/09 13:41:50;;;;;;;;;;;;;;;19.97;61.12;101910.44;5036924;28;20295;-51
2023/10/09 13:44:15;;;;;;;;;;;;;;;19.96;61.34;101912.28;5039416;28;20120;-51
2023/10/09 13:46:41;;;;;;;;;;;;;;;19.97;61.13;101907.75;5038267;28;19959;-48
2023/10/09 13:49:12;;;;;;;;;;;;;;;19.96;61.34;101909.59;5064884;28;19944;-51
2023/10/09 13:51:37;;;;;;;;;;;;;;;19.96;61.48;101915.00;5035594;28;19913;-49
2023/10/09 13:54:07;;;;;;;;;;;;;;;19.97;61.64;101913.13;5035870;28;19913;-49
2023/10/09 13:56:32;;;;;;;;;;;;;;;19.96;61.35;101923.09;5039178;28;19924;-49
2023/10/09 13:58:57;;;;;;;;;;;;;;;19.97;61.64;101915.84;5034907;28;19913;-50
2023/10/09 14:01:32;;;;;;;;;;;;;;;19.97;61.40;101915.84;5041828;28;19975;-49
2023/10/09 14:03:58;;;;;;;;;;;;;;;19.97;61.57;101916.69;5032707;28;19988;-52
2023/10/09 14:06:33;;;;;;;;;;;;;;;19.98;61.70;101907.56;5036590;28;19967;-52
2023/10/09 14:09:05;;;;;;;;;;;;;;;19.97;61.75;101913.97;5037616;28;20018;-48
2023/10/09 14:11:37;;;;;;;;;;;;;;;19.97;61.60;101899.63;5037486;28;20360;-49
2023/10/09 14:14:02;;;;;;;;;;;;;;;19.98;61.65;101904.03;5038518;28;19924;-53
2023/10/09 14:16:28;;;;;;;;;;;;;;;19.97;61.40;101900.50;5039490;28;19921;-49
2023/10/09 14:18:56;;;;;;;;;;;;;;;19.97;61.62;101903.19;5035891;28;19948;-52
2023/10/09 14:21:25;;;;;;;;;;;;;;;19.98;61.42;101910.28;5041506;28;19963;-47
2023/10/09 14:23:50;;;;;;;;;;;;;;;19.98;61.75;101909.44;5061669;28;19912;-48
2023/10/09 14:26:18;;;;;;;;;;;;;;;19.97;61.63;101897.78;5067373;28;19917;-52
2023/10/09 14:28:43;;;;;;;;;;;;;;;19.96;61.50;101885.31;5032767;28;19913;-49
2023/10/09 14:31:12;;;;;;;;;;;;;;;19.97;61.66;101888.84;5034364;28;20008;-49
2023/10/09 14:33:37;;;;;;;;;;;;;;;19.97;61.58;101886.16;5046255;28;19913;-50
2023/10/09 14:36:05;;;;;;;;;;;;;;;19.97;61.72;101889.69;5040485;28;19967;-52
2023/10/09 14:38:32;;;;;;;;;;;;;;;19.97;61.64;101887.00;5035034;28;19968;-52
2023/10/09 14:40:59;;;;;;;;;;;;;;;19.99;61.38;101889.53;5034863;28;19913;-49
2023/10/09 14:43:28;;;;;;;;;;;;;;;19.99;61.72;101892.22;5037372;28;20411;-50
2023/10/09 14:45:53;;;;;;;;;;;;;;;20.01;61.64;101890.25;5034305;28;19913;-49
2023/10/09 14:48:19;;;;;;;;;;;;;;;20.03;61.80;101890.06;5039274;28;19939;-51
2023/10/09 14:50:53;;;;;;;;;;;;;;;20.03;61.54;101893.63;5040223;28;19917;-48
2023/10/09 14:53:19;;;;;;;;;;;;;;;20.05;61.59;101890.75;5038359;28;19917;-49